AirNav   ProFlight Series 2 Aviation Headset
 
 1027 users online  

98MI L & L Heliport
Huron Township, Michigan, USA

GOING TO HURON TOWNSHIP?


FAA INFORMATION EFFECTIVE 18 JUNE 2020

Location

FAA Identifier: 98MI
Lat/Long: 42-09-48.0000N 083-20-43.0000W
42-09.800000N 083-20.716667W
42.1633333,-83.3452778
(estimated)
Elevation: 630 ft. / 192 m (estimated)
From city: 2 miles E of HURON TOWNSHIP, MI
Time zone: UTC -4 (UTC -5 during Standard Time)
Zip code: 48164

Heliport Operations

Heliport use: Private use. Permission required prior to landing
Activation date: 03/2007
Control tower: no
ARTCC: CLEVELAND CENTER
FSS: LANSING FLIGHT SERVICE STATION
Attendance: UNATNDD
Wind indicator: yes
Segmented circle: no

Heliport Communications

WX ASOS at DTW (3 nm N): 133.675 (734-955-5015)
WX AWOS-3 at ONZ (9 nm SE): 119.675 (734-692-9686)
WX ASOS at YIP (9 nm NW): PHONE 734-961-6843
WX AWOS-3 at TTF (14 nm S): 119.075 (734-384-0259)
WX ASOS at ARB (18 nm W): 134.55 (734-668-7173)

Nearby radio navigation aids

VOR radial/distance  VOR name  Freq  Var
DXOr168/3.1DETROIT VOR/DME113.4006W
CRLr039/8.5CARLETON VOR/DME115.7003W
SVMr146/18.4SALEM VORTAC114.3003W

 
NDB name  Hdg/Dist  Freq  Var  ID
GROSSE ILE301/9.341907WRYS .-. -.-- ...
TECUMSEH078/25.323906WTCU - -.-. ..-
ADRIAN068/37.127806WADG .- -.. --.

Heliport Services

Runway Information

Helipad H1

Dimensions: 30 x 30 ft. / 9 x 9 m
Surface: concrete
Traffic pattern: leftleft

Heliport Ownership and Management from official FAA records

Ownership: Privately-owned
Owner: LARRY FRANZEL
19360 MERRIMAN RD
ROMULUS, MI 48174-9419
Phone 734-753-4445
Manager: LARRY FRANZEL
19360 MERRIMAN RD
ROMULUS, MI 48174-9419
Phone 734-753-4445

Heliport Operational Statistics

Aircraft based on the field: 1
Helicopters: 1
    

Additional Remarks

FOR CD CTC DETROIT APCH AT 800-499-8181.

Instrument Procedures

There are no published instrument procedures at 98MI.

Some nearby airports with instrument procedures:

KDTW - Detroit Metropolitan Wayne County Airport (3 nm N)
KONZ - Grosse Ile Municipal Airport (9 nm SE)
KYIP - Willow Run Airport (9 nm NW)
1D2 - Canton-Plymouth-Mettetal Airport (12 nm NW)
KTTF - Custer Airport (14 nm S)
KARB - Ann Arbor Municipal Airport (18 nm W)
 
Loc | Ops | Rwys | IFR | FBO | Links
Com | Nav | Svcs | Stats | Notes
Area around 98MI (L & L Heliport)
 
Road maps at: MapQuest Bing Google
 
Aerial photo
No photo
 
Sectional chart

 
Airport distance calculator
Flying to L & L Heliport? Find the distance to fly.

From to 98MI

Sunrise and sunset
Times for 12-Jul-2020
 Local
(UTC-4)
 Zulu
(UTC)
Morning civil twilight05:3609:36
Sunrise06:1010:10
Sunset21:0801:08
Evening civil twilight21:4201:42

Current date and time
Zulu (UTC)  12-Jul-2020 18:11:36
Local (UTC-4)  12-Jul-2020 14:11:36
 
METAR
KDTW 
4nm N 
121753Z 31009KT 10SM BKN045 BKN070 27/16 A2981 RMK AO2 SLP089 T02670156 10272 20211 58004
KYIP 
9nm NW 
121753Z 34010G15KT 10SM FEW043 BKN070 29/16 A2982 RMK AO2 SLP088 T02940156 10294 20217 58003
KONZ 
9nm SE 
121755Z AUTO 32007KT 10SM SCT046 SCT050 BKN080 28/17 A2979 RMK AO2 60001 T02790171 10280 20215
KTTF 
14nm S 
121755Z AUTO 31007KT 10SM SCT045 27/15 A2980 RMK AO2 T02740148 10274 20192
KARB 
18nm W 
734-668-7173
121753Z 10SM FEW039 26/16 A2982 RMK AO2 SLP091 T02560161 10267 20194 58002 $
CYQG 
18nm E 
121700Z AUTO 28009KT 9SM FEW210 26/17 A2981 RMK SLP091 DENSITY ALT 2100FT
TAF
KDTW 
4nm N 
121734Z 1218/1324 33007KT P6SM BKN050 FM130200 02006KT P6SM SCT080 FM130900 35005KT P6SM SCT250 FM131500 35006KT P6SM BKN050
KYIP 
9nm NW 
121734Z 1218/1318 33007KT P6SM BKN045 FM130200 02006KT P6SM SCT080 FM130900 35005KT P6SM SCT250 FM131500 35006KT P6SM BKN050
CYQG 
18nm E 
121739Z 1218/1318 29010KT P6SM SCT220 FM122000 30010KT P6SM SCT060 TEMPO 1220/1306 BKN060 BECMG 1300/1302 04008KT FM131500 02007KT P6SM SCT040 RMK FCST BASED ON AUTO OBS. NXT FCST BY 130000Z
NOTAMs
Click for the latest NOTAMs
NOTAMs are issued by the DoD/FAA and will open in a separate window not controlled by AirNav.

 

 
 

Would you like to see your business listed on this page?

 If your business provides an interesting product or service to pilots, flight crews, aircraft, or users of the L & L Heliport, you should consider listing it here.  To start the listing process, click on the button below
 
Add a business
 

Other Pages about L & L Heliport

Update a link
 
Copyright © AirNav, LLC. All rights reserved. Privacy Policy  Contact